Jackpot Winner Domino

Jackpot hanya dapat di beli di awal sebelum periode tersebut berjalan dan jika berhasil maka anda dapat melihat di sisi kiri bawah atau kiri atas akan terdapat notifikasi bahwa jackpot anda berhasil di beli.

Jika anda membeli jackpot di tengah permainan maka pembelian jackpot akan berlaku untuk periode selanjutnya.

Ikutilah global jackpot yang tersedia di system kami, dengan system jackpot terbaru dan pertama di indonesia, anda dapat membeli jackpot dengan harga 100 rupiah saja dan menangkan hadiahnya hingga puluhan juta rupiah.

Jackpot bukanlah suatu keharusan untuk dibeli, namun kami memberikan suatu fitur tambahan untuk member tercinta dari www.ayonaga.com.

Terdapat tiga pilihan harga jackpot yang bisa anda beli yaitu :100,500 dan 1000 rupiah.

Hadiah dari Multi jackpot system www.ayonaga.com

  1. Murni Kecil x 50 harga jackpot yang anda beli.
      (contoH:anda membeli 1000 maka:1000 X 50 = 50.000)
  2. Murni Besar x 50 harga jackpot yang anda beli
      (contoH:anda membeli 1000 maka:1000 X 50 = 50.000)
  3. BALAK x 100 harga jackpot yang anda beli
      (contoH:anda membeli 1000 maka:1000 X 100 = 100.000)
  4. ENAM DEWA x 6666 harga jackpot yang anda beli
      (contoH:anda membeli 1000 maka:1000 X 6666 = 6.666.000)

Demikian adalah penjelasan dari Multi Jackpot www.ayonaga.com terima kasih dan selamat bermain salam hoki dari kami


Note: Untuk mendapatkan jackpot di satu periode, pemain harus menyelesaikan permainan di periode tersebut, minimal 2 pemain. Jika semua pemain 'fold' jackpot tidak akan diturunkan.


Jackpot Winner

TOP ENAM DEWA
No. Tanggal Nama Price Win
1 22/02 15:40 THOMAS09 murni enam 3,333,000
2 22/02 15:35 QQDDAPR murni enam 3,333,000
3 22/02 15:16 VIOFANG murni enam 3,333,000
4 22/02 15:10 ALKABII16 murni enam 6,666,000
5 22/02 13:26 JETPLEN murni enam 3,333,000
TOP BALAK
No. Tanggal Nama Price Win
1 22/02 19:27 G3MBELL balak 100,000
2 22/02 19:23 EDIWIYO25 balak 10,000
3 22/02 19:21 O11B9TPF7W balak 100,000
4 22/02 19:20 OBRUT10 balak 10,000
5 22/02 19:15 LUKASS123 balak 10,000
LATEST JACKPOT
No. Tanggal Nama Price Win
1 22/02 19:29 HAYEY99 murni kecil 50,000
2 22/02 19:28 DATOK89 murni besar 25,000
3 22/02 19:28 EDANE74 murni besar 50,000
4 22/02 19:28 PUTRADEN91 murni besar 50,000
5 22/02 19:28 JNCK19 murni kecil 25,000
6 22/02 19:28 SRITE24 murni kecil 25,000
7 22/02 19:28 MAHO13 murni kecil 25,000
8 22/02 19:28 EBONG17 murni kecil 25,000
9 22/02 19:27 G3MBELL balak 100,000
10 22/02 19:27 MR_29NOV97 murni kecil 5,000
11 22/02 19:27 SILITKU2 murni kecil 50,000
12 22/02 19:27 TEMPALO murni kecil 50,000
13 22/02 19:26 JAK1997 murni besar 5,000
14 22/02 19:26 CBR89 murni besar 25,000
15 22/02 19:25 BAUMAN9 murni kecil 5,000
16 22/02 19:25 MF1R4S murni besar 50,000
17 22/02 19:23 EDIWIYO25 balak 10,000
18 22/02 19:23 ARKA_BROCK lucky99 25,000
19 22/02 19:23 BALGA murni kecil 25,000
20 22/02 19:22 BERLOZ murni kecil 25,000
21 22/02 19:22 GWPERANTAU murni besar 5,000
22 22/02 19:21 O11B9TPF7W balak 100,000
23 22/02 19:20 OBRUT10 balak 10,000
24 22/02 19:20 JEMPOLK4K1 murni besar 50,000
25 22/02 19:20 KRIS89999 murni kecil 5,000
26 22/02 19:20 DELKAQU11 lucky99 10,000
27 22/02 19:20 KEJENG99 murni kecil 50,000
28 22/02 19:19 FAKINGSHIT lucky99 50,000
29 22/02 19:19 SE7ENSKY murni besar 50,000
30 22/02 19:19 GRACE45 murni besar 50,000
31 22/02 19:18 JANTAR99 murni kecil 5,000
32 22/02 19:18 UUWWWOOO murni kecil 25,000
33 22/02 19:18 DEKMAS murni besar 25,000
34 22/02 19:17 PRODIANSYA murni besar 5,000
35 22/02 19:16 LAPAK69 murni kecil 50,000
36 22/02 19:16 IPIR44 murni kecil 25,000
37 22/02 19:16 ANTEREJA murni kecil 25,000
38 22/02 19:15 LUKASS123 balak 10,000
39 22/02 19:15 D3N1P murni kecil 25,000
40 22/02 19:15 S4MUDR44 balak 100,000
41 22/02 19:15 TRX_3 murni kecil 50,000
42 22/02 19:15 OZLEH murni besar 50,000
43 22/02 19:14 SILITKU2 murni kecil 50,000
44 22/02 19:14 PUKQMY murni kecil 50,000
45 22/02 19:14 DANIAHMAD8 murni kecil 5,000
46 22/02 19:14 WIIEERR murni kecil 25,000
47 22/02 19:13 WC5000 murni kecil 25,000
48 22/02 19:13 MF1R4S murni kecil 50,000
49 22/02 19:13 SUNIA05 murni besar 50,000
50 22/02 19:13 MI5533 murni kecil 5,000